Aérodrome :
LOGIN :

S'inscrire | Disclaimer

   EN    FR    IT 

 










Légende :    VFR   VFR Marginal   IFR   IFR Intensif   IFR Très Intensif
Visi : 
Plafond : 
>= 8 km
>= 3000ft
5 à 8 km
1000 à 3000 ft
1500m à 5 km
500 à 1000 ft
800 à 1500m
200 à 500 ft
< 800m
< 200 ft
Symboles :   Orages  Brouillard  Fortes neiges  Fortes précipitations  Vent > 20 kt
SIGMETs :   Divers  Orages  Givrage  Turbulence  Onde Orograph.  Cendres Volcan.






- Altitude de l'aérodrome : 141 ft
- Code IATA : SKS


EKSP - Srydstrup Vojens

DERNIER METAR :
  • 201350Z 07003KT 9999 FEW015 SCT042 BKN070 07/05 Q1018 NOSIG

METARs EXPIRÉS :
  • 201320Z 06004KT 9999 FEW015 SCT042 BKN070 07/04 Q1019 NOSIG
  • 201250Z 04003KT 9999 -RA FEW015 BKN042 07/05 Q1019 NOSIG
  • 201220Z 05003KT 9999 FEW015 BKN042 07/05 Q1019 NOSIG
  • 201150Z 04004KT 010V070 9999 FEW015 BKN045 07/05 Q1019 NOSIG
  • 201120Z 02003KT 9999 BKN045 07/05 Q1019 NOSIG

TAF TAF EKSP
Valide du 20 à 12h jusqu'au 21 à 12h UTC


201123Z 2012/2112 03005KT 9999 BKN045
BECMG 2018/2020 3000 -RA BR BKN005
TEMPO 2020/2107 1200 BKN002
BECMG 2107/2109 14006KT 6000 NSW BKN030



MET'MAP, la Météo Aéronautique d'un coup d'oeil ! - Copyright ORBIFLY Décembre 2007 - Disclaimer

ORBIFLY MET'MAP TEAM :

Programmation & Développement : Alexandra Zaïnal
Conception & Développement : Baudouin d'Aumeries
Co-Programmation & Développement : Marc-Olivier Méhu
Soutien technique & logistique : Manuel Goepfert

Contact : metmap@orbifly.com




SOURCES & CREDITS :

   NOAA